Time,TemperatureF,DewpointF,PressureIn,WindDirection,WindDirectionDegrees,WindSpeedMPH,WindSpeedGustMPH,Humidity,HourlyPrecipIn,Conditions,Clouds,dailyrainin,SolarRadiationWatts/m^2,SoftwareType,DateUTC
2013-11-20 00:21:00,5.0,-8.0,-100.00,NE,35,3.0,5.0,55,0.00,,,0.00,0.000000,,2013-11-20 09:21:00,
2013-11-20 00:33:00,5.0,-8.0,-100.00,NE,35,3.0,5.0,55,0.00,,,0.00,0.000000,,2013-11-20 09:33:00,
2013-11-20 00:43:00,5.0,-8.0,-100.00,NE,35,3.0,5.0,55,0.00,,,0.00,0.000000,,2013-11-20 09:43:00,
2013-11-20 00:53:00,5.0,-8.0,-100.00,NE,35,3.0,5.0,55,0.00,,,0.00,0.000000,,2013-11-20 09:53:00,
2013-11-20 01:23:00,6.0,-12.0,-100.00,SSE,149,3.0,4.0,42,0.00,,,0.00,0.000000,,2013-11-20 10:23:00,
2013-11-20 01:32:00,6.0,-12.0,-100.00,SSE,149,3.0,4.0,42,0.00,,,0.00,0.000000,,2013-11-20 10:32:00,
2013-11-20 01:43:00,6.0,-12.0,-100.00,SSE,149,3.0,4.0,42,0.00,,,0.00,0.000000,,2013-11-20 10:43:00,
2013-11-20 01:53:00,6.0,-12.0,-100.00,SSE,149,3.0,4.0,42,0.00,,,0.00,0.000000,,2013-11-20 10:53:00,
2013-11-20 02:22:00,2.0,-8.0,-100.00,NNE,26,5.0,7.0,61,0.00,,,0.00,0.000000,,2013-11-20 11:22:00,
2013-11-20 02:33:00,2.0,-8.0,-100.00,NNE,26,5.0,7.0,61,0.00,,,0.00,0.000000,,2013-11-20 11:33:00,
2013-11-20 02:42:00,2.0,-8.0,-100.00,NNE,26,5.0,7.0,61,0.00,,,0.00,0.000000,,2013-11-20 11:42:00,
2013-11-20 02:52:00,2.0,-8.0,-100.00,NNE,26,5.0,7.0,61,0.00,,,0.00,0.000000,,2013-11-20 11:52:00,
2013-11-20 03:22:00,0.0,-10.0,-100.00,NNE,18,6.0,8.0,62,0.00,,,0.00,0.000000,,2013-11-20 12:22:00,
2013-11-20 03:32:00,0.0,-10.0,-100.00,NNE,18,6.0,8.0,62,0.00,,,0.00,0.000000,,2013-11-20 12:32:00,
2013-11-20 03:42:00,0.0,-10.0,-100.00,NNE,18,6.0,8.0,62,0.00,,,0.00,0.000000,,2013-11-20 12:42:00,
2013-11-20 03:52:00,0.0,-10.0,-100.00,NNE,18,6.0,8.0,62,0.00,,,0.00,0.000000,,2013-11-20 12:52:00,
2013-11-20 04:21:00,0.0,-11.0,-100.00,North,1,3.0,10.0,60,0.00,,,0.00,0.000000,,2013-11-20 13:21:00,
2013-11-20 04:32:00,0.0,-11.0,-100.00,North,1,3.0,10.0,60,0.00,,,0.00,0.000000,,2013-11-20 13:32:00,
2013-11-20 04:42:00,0.0,-11.0,-100.00,North,1,3.0,10.0,60,0.00,,,0.00,0.000000,,2013-11-20 13:42:00,
2013-11-20 04:52:00,0.0,-11.0,-100.00,North,1,3.0,10.0,60,0.00,,,0.00,0.000000,,2013-11-20 13:52:00,
2013-11-20 05:22:00,1.0,-12.0,-100.00,NE,51,2.0,7.0,54,0.00,,,0.00,0.000000,,2013-11-20 14:22:00,
2013-11-20 05:32:00,1.0,-12.0,-100.00,NE,51,2.0,7.0,54,0.00,,,0.00,0.000000,,2013-11-20 14:32:00,
2013-11-20 05:42:00,1.0,-12.0,-100.00,NE,51,2.0,7.0,54,0.00,,,0.00,0.000000,,2013-11-20 14:42:00,
2013-11-20 05:52:00,1.0,-12.0,-100.00,NE,51,2.0,7.0,54,0.00,,,0.00,0.000000,,2013-11-20 14:52:00,
2013-11-20 06:21:00,1.0,-11.0,-100.00,SSW,202,1.0,6.0,55,0.00,,,0.00,0.000000,,2013-11-20 15:21:00,
2013-11-20 06:33:00,1.0,-11.0,-100.00,SSW,202,1.0,6.0,55,0.00,,,0.00,0.000000,,2013-11-20 15:33:00,
2013-11-20 06:43:00,1.0,-11.0,-100.00,SSW,202,1.0,6.0,55,0.00,,,0.00,0.000000,,2013-11-20 15:43:00,
2013-11-20 06:53:00,1.0,-11.0,-100.00,SSW,202,1.0,6.0,55,0.00,,,0.00,0.000000,,2013-11-20 15:53:00,
2013-11-20 07:23:00,0.0,-11.0,-100.00,NE,43,2.0,6.0,58,0.00,,,0.00,0.000000,,2013-11-20 16:23:00,
2013-11-20 07:34:00,0.0,-11.0,-100.00,NE,43,2.0,6.0,58,0.00,,,0.00,0.000000,,2013-11-20 16:34:00,
2013-11-20 07:43:00,0.0,-11.0,-100.00,NE,43,2.0,6.0,58,0.00,,,0.00,0.000000,,2013-11-20 16:43:00,
2013-11-20 07:52:00,0.0,-11.0,-100.00,NE,43,2.0,6.0,58,0.00,,,0.00,0.000000,,2013-11-20 16:52:00,
2013-11-20 08:22:00,0.0,-10.0,-100.00,SSE,165,3.0,6.0,62,0.00,,,0.00,0.000000,,2013-11-20 17:22:00,
2013-11-20 08:33:00,0.0,-10.0,-100.00,SSE,165,3.0,6.0,62,0.00,,,0.00,0.000000,,2013-11-20 17:33:00,
2013-11-20 08:42:00,0.0,-10.0,-100.00,SSE,165,3.0,6.0,62,0.00,,,0.00,0.000000,,2013-11-20 17:42:00,
2013-11-20 08:52:00,0.0,-10.0,-100.00,SSE,165,3.0,6.0,62,0.00,,,0.00,0.000000,,2013-11-20 17:52:00,
2013-11-20 09:21:00,0.0,-10.0,-100.00,South,191,2.0,3.0,62,0.00,,,0.00,0.000000,,2013-11-20 18:21:00,
2013-11-20 09:32:00,0.0,-10.0,-100.00,South,191,2.0,3.0,62,0.00,,,0.00,0.000000,,2013-11-20 18:32:00,
2013-11-20 09:42:00,0.0,-10.0,-100.00,South,191,2.0,3.0,62,0.00,,,0.00,0.000000,,2013-11-20 18:42:00,
2013-11-20 09:52:00,0.0,-10.0,-100.00,South,191,2.0,3.0,62,0.00,,,0.00,0.000000,,2013-11-20 18:52:00,
2013-11-20 10:21:00,0.0,-12.0,-100.00,SE,132,2.0,5.0,55,0.00,,,0.00,6.000000,,2013-11-20 19:21:00,
2013-11-20 10:32:00,0.0,-12.0,-100.00,SE,132,2.0,5.0,55,0.00,,,0.00,6.000000,,2013-11-20 19:32:00,
2013-11-20 10:42:00,0.0,-12.0,-100.00,SE,132,2.0,5.0,55,0.00,,,0.00,6.000000,,2013-11-20 19:42:00,
2013-11-20 10:52:00,0.0,-12.0,-100.00,SE,132,2.0,5.0,55,0.00,,,0.00,6.000000,,2013-11-20 19:52:00,
2013-11-20 11:21:00,2.0,-12.0,-100.00,NE,54,3.0,5.0,52,0.00,,,0.00,17.000000,,2013-11-20 20:21:00,
2013-11-20 11:32:00,2.0,-12.0,-100.00,NE,54,3.0,5.0,52,0.00,,,0.00,17.000000,,2013-11-20 20:32:00,
2013-11-20 11:42:00,2.0,-12.0,-100.00,NE,54,3.0,5.0,52,0.00,,,0.00,17.000000,,2013-11-20 20:42:00,
2013-11-20 11:52:00,2.0,-12.0,-100.00,NE,54,3.0,5.0,52,0.00,,,0.00,17.000000,,2013-11-20 20:52:00,
2013-11-20 12:21:00,9.0,-10.0,-100.00,South,187,2.0,4.0,41,0.00,,,0.00,119.000000,,2013-11-20 21:21:00,
2013-11-20 12:33:00,9.0,-10.0,-100.00,South,187,2.0,4.0,41,0.00,,,0.00,119.000000,,2013-11-20 21:33:00,
2013-11-20 12:43:00,9.0,-10.0,-100.00,South,187,2.0,4.0,41,0.00,,,0.00,119.000000,,2013-11-20 21:43:00,
2013-11-20 12:53:00,9.0,-10.0,-100.00,South,187,2.0,4.0,41,0.00,,,0.00,119.000000,,2013-11-20 21:53:00,
2013-11-20 13:23:00,10.0,-7.0,-100.00,West,261,2.0,5.0,45,0.00,,,0.00,124.000000,,2013-11-20 22:23:00,
2013-11-20 13:32:00,10.0,-7.0,-100.00,West,261,2.0,5.0,45,0.00,,,0.00,124.000000,,2013-11-20 22:32:00,
2013-11-20 13:42:00,10.0,-7.0,-100.00,West,261,2.0,5.0,45,0.00,,,0.00,124.000000,,2013-11-20 22:42:00,
2013-11-20 13:53:00,10.0,-7.0,-100.00,West,261,2.0,5.0,45,0.00,,,0.00,124.000000,,2013-11-20 22:53:00,
2013-11-20 14:21:00,9.0,-7.0,-100.00,ESE,109,2.0,5.0,47,0.00,,,0.00,148.000000,,2013-11-20 23:21:00,
2013-11-20 14:32:00,9.0,-7.0,-100.00,ESE,109,2.0,5.0,47,0.00,,,0.00,148.000000,,2013-11-20 23:32:00,
2013-11-20 14:42:00,9.0,-7.0,-100.00,ESE,109,2.0,5.0,47,0.00,,,0.00,148.000000,,2013-11-20 23:42:00,
2013-11-20 14:52:00,9.0,-7.0,-100.00,ESE,109,2.0,5.0,47,0.00,,,0.00,148.000000,,2013-11-20 23:52:00,
2013-11-20 15:21:00,11.0,-9.0,-100.00,North,357,1.0,4.0,40,0.00,,,0.00,102.000000,,2013-11-21 00:21:00,
2013-11-20 15:32:00,11.0,-9.0,-100.00,North,357,1.0,4.0,40,0.00,,,0.00,102.000000,,2013-11-21 00:32:00,
2013-11-20 15:42:00,11.0,-9.0,-100.00,North,357,1.0,4.0,40,0.00,,,0.00,102.000000,,2013-11-21 00:42:00,
2013-11-20 15:52:00,11.0,-9.0,-100.00,North,357,1.0,4.0,40,0.00,,,0.00,102.000000,,2013-11-21 00:52:00,
2013-11-20 16:22:00,5.0,-11.0,-100.00,NNE,12,1.0,4.0,46,0.00,,,0.00,34.000000,,2013-11-21 01:22:00,
2013-11-20 16:32:00,5.0,-11.0,-100.00,NNE,12,1.0,4.0,46,0.00,,,0.00,34.000000,,2013-11-21 01:32:00,
2013-11-20 16:42:00,5.0,-11.0,-100.00,NNE,12,1.0,4.0,46,0.00,,,0.00,34.000000,,2013-11-21 01:42:00,
2013-11-20 16:52:00,5.0,-11.0,-100.00,NNE,12,1.0,4.0,46,0.00,,,0.00,34.000000,,2013-11-21 01:52:00,
2013-11-20 17:21:00,4.0,-11.0,-100.00,NNE,26,3.0,4.0,49,0.00,,,0.00,3.000000,,2013-11-21 02:21:00,
2013-11-20 17:32:00,4.0,-11.0,-100.00,NNE,26,3.0,4.0,49,0.00,,,0.00,3.000000,,2013-11-21 02:32:00,
2013-11-20 17:42:00,4.0,-11.0,-100.00,NNE,26,3.0,4.0,49,0.00,,,0.00,3.000000,,2013-11-21 02:42:00,
2013-11-20 17:52:00,4.0,-11.0,-100.00,NNE,26,3.0,4.0,49,0.00,,,0.00,3.000000,,2013-11-21 02:52:00,
2013-11-20 18:21:00,4.0,-10.0,-100.00,ESE,114,1.0,5.0,50,0.00,,,0.00,0.000000,,2013-11-21 03:21:00,
2013-11-20 18:33:00,4.0,-10.0,-100.00,ESE,114,1.0,5.0,50,0.00,,,0.00,0.000000,,2013-11-21 03:33:00,
2013-11-20 18:43:00,4.0,-10.0,-100.00,ESE,114,1.0,5.0,50,0.00,,,0.00,0.000000,,2013-11-21 03:43:00,
2013-11-20 18:53:00,4.0,-10.0,-100.00,ESE,114,1.0,5.0,50,0.00,,,0.00,0.000000,,2013-11-21 03:53:00,
2013-11-20 19:23:00,4.0,-11.0,-100.00,SW,218,2.0,5.0,48,0.00,,,0.00,0.000000,,2013-11-21 04:23:00,
2013-11-20 19:33:00,4.0,-11.0,-100.00,SW,218,2.0,5.0,48,0.00,,,0.00,0.000000,,2013-11-21 04:33:00,
2013-11-20 19:43:00,4.0,-11.0,-100.00,SW,218,2.0,5.0,48,0.00,,,0.00,0.000000,,2013-11-21 04:43:00,
2013-11-20 19:53:00,4.0,-11.0,-100.00,SW,218,2.0,5.0,48,0.00,,,0.00,0.000000,,2013-11-21 04:53:00,
2013-11-20 20:22:00,5.0,-8.0,-100.00,NE,47,4.0,5.0,55,0.00,,,0.00,0.000000,,2013-11-21 05:22:00,
2013-11-20 20:32:00,5.0,-8.0,-100.00,NE,47,4.0,5.0,55,0.00,,,0.00,0.000000,,2013-11-21 05:32:00,
2013-11-20 20:42:00,5.0,-8.0,-100.00,NE,47,4.0,5.0,55,0.00,,,0.00,0.000000,,2013-11-21 05:42:00,
2013-11-20 20:52:00,5.0,-8.0,-100.00,NE,47,4.0,5.0,55,0.00,,,0.00,0.000000,,2013-11-21 05:52:00,
2013-11-20 21:22:00,4.0,-11.0,-100.00,SSW,194,2.0,5.0,48,0.00,,,0.00,0.000000,,2013-11-21 06:22:00,
2013-11-20 21:33:00,4.0,-11.0,-100.00,SSW,194,2.0,5.0,48,0.00,,,0.00,0.000000,,2013-11-21 06:33:00,
2013-11-20 21:43:00,4.0,-11.0,-100.00,SSW,194,2.0,5.0,48,0.00,,,0.00,0.000000,,2013-11-21 06:43:00,
2013-11-20 21:52:00,4.0,-11.0,-100.00,SSW,194,2.0,5.0,48,0.00,,,0.00,0.000000,,2013-11-21 06:52:00,
2013-11-20 22:22:00,2.0,-13.0,-100.00,NNE,24,5.0,6.0,48,0.00,,,0.00,0.000000,,2013-11-21 07:22:00,
2013-11-20 22:33:00,2.0,-13.0,-100.00,NNE,24,5.0,6.0,48,0.00,,,0.00,0.000000,,2013-11-21 07:33:00,
2013-11-20 22:42:00,2.0,-13.0,-100.00,NNE,24,5.0,6.0,48,0.00,,,0.00,0.000000,,2013-11-21 07:42:00,
2013-11-20 22:52:00,2.0,-13.0,-100.00,NNE,24,5.0,6.0,48,0.00,,,0.00,0.000000,,2013-11-21 07:52:00,
2013-11-20 23:21:00,2.0,-14.0,-100.00,NNE,30,4.0,6.0,47,0.00,,,0.00,0.000000,,2013-11-21 08:21:00,
2013-11-20 23:32:00,2.0,-14.0,-100.00,NNE,30,4.0,6.0,47,0.00,,,0.00,0.000000,,2013-11-21 08:32:00,
2013-11-20 23:42:00,2.0,-14.0,-100.00,NNE,30,4.0,6.0,47,0.00,,,0.00,0.000000,,2013-11-21 08:42:00,
2013-11-20 23:52:00,2.0,-14.0,-100.00,NNE,30,4.0,6.0,47,0.00,,,0.00,0.000000,,2013-11-21 08:52:00,